createdAt,value
2019-01-23T00:01:16.843Z,99.90
2019-01-23T00:11:20.225Z,99.90
2019-01-23T00:16:11.522Z,99.90
2019-01-23T00:21:04.942Z,99.90
2019-01-23T00:25:54.422Z,99.90
2019-01-23T00:30:47.880Z,99.90
2019-01-23T00:35:40.715Z,99.90
2019-01-23T00:40:31.810Z,99.90
2019-01-23T00:45:25.307Z,99.90
2019-01-23T00:50:16.494Z,99.90
2019-01-23T00:55:08.185Z,99.90
2019-01-23T01:00:00.030Z,99.90
2019-01-23T01:04:51.575Z,99.90
2019-01-23T01:09:53.643Z,99.90
2019-01-23T01:14:41.394Z,99.90
2019-01-23T01:54:10.992Z,99.90
2019-01-23T02:31:45.767Z,99.90
2019-01-23T03:00:03.683Z,99.90
2019-01-23T03:07:22.108Z,99.90
2019-01-23T03:12:50.763Z,99.90
2019-01-23T03:17:38.176Z,99.90
2019-01-23T03:22:42.022Z,99.90
2019-01-23T03:28:39.463Z,99.90
2019-01-23T03:33:24.403Z,99.90
2019-01-23T03:39:08.553Z,99.90
2019-01-23T03:43:59.758Z,99.90
2019-01-23T03:49:07.213Z,99.90
2019-01-23T03:54:27.157Z,99.90
2019-01-23T03:59:33.492Z,99.90
2019-01-23T04:10:34.585Z,99.90
2019-01-23T04:15:18.831Z,99.90
2019-01-23T04:20:08.103Z,99.90
2019-01-23T04:24:59.149Z,99.90
2019-01-23T04:29:49.865Z,99.90
2019-01-23T04:34:42.145Z,99.90
2019-01-23T04:39:32.490Z,99.90
2019-01-23T04:44:22.439Z,99.90
2019-01-23T04:49:13.701Z,99.90
2019-01-23T04:54:06.854Z,99.90
2019-01-23T04:58:58.075Z,99.90
2019-01-23T05:03:50.894Z,99.90
2019-01-23T05:08:40.131Z,99.90
2019-01-23T05:13:31.134Z,99.90
2019-01-23T06:38:59.550Z,99.90
2019-01-23T06:44:04.163Z,99.90
2019-01-23T06:49:05.463Z,99.90
2019-01-23T06:54:09.427Z,99.90
2019-01-23T06:59:10.746Z,99.90
2019-01-23T07:04:13.786Z,99.90
2019-01-23T07:09:14.386Z,99.90
2019-01-23T07:14:16.956Z,99.90
2019-01-23T07:19:19.782Z,99.90
2019-01-23T07:24:22.178Z,99.90
2019-01-23T07:29:25.481Z,99.90
2019-01-23T07:49:36.119Z,99.90
2019-01-23T09:09:57.252Z,98.30
2019-01-23T09:21:52.255Z,97.80
2019-01-23T09:26:55.625Z,96.90
2019-01-23T09:31:58.039Z,97.20
2019-01-23T09:37:00.954Z,96.70
2019-01-23T09:42:04.172Z,96.10
2019-01-23T09:47:08.542Z,95.90
2019-01-23T09:52:10.690Z,95.00
2019-01-23T09:57:15.343Z,94.60
2019-01-23T10:02:20.602Z,94.80
2019-01-23T10:07:25.832Z,94.20
2019-01-23T10:12:29.181Z,93.50
2019-01-23T10:17:33.910Z,93.70
2019-01-23T10:22:37.468Z,94.00
2019-01-23T10:27:41.800Z,94.50
2019-01-23T10:32:37.593Z,94.20
2019-01-23T10:37:34.922Z,93.70
2019-01-23T10:42:38.759Z,93.70
2019-01-23T10:47:39.730Z,93.90
2019-01-23T10:52:28.721Z,94.00
2019-01-23T10:57:32.966Z,93.70
2019-01-23T11:02:21.537Z,92.80
2019-01-23T11:07:08.666Z,93.50
2019-01-23T11:12:00.161Z,94.20
2019-01-23T11:16:52.800Z,93.80
2019-01-23T11:21:44.496Z,94.60
2019-01-23T11:26:34.840Z,94.50
2019-01-23T11:31:27.331Z,93.90
2019-01-23T11:36:18.841Z,94.00
2019-01-23T11:41:11.695Z,93.40
2019-01-23T11:46:02.749Z,93.80
2019-01-23T11:50:54.072Z,93.40
2019-01-23T11:55:45.912Z,93.60
2019-01-23T12:00:37.790Z,93.90
2019-01-23T12:05:30.682Z,93.50
2019-01-23T12:10:24.869Z,93.50
2019-01-23T12:15:16.196Z,93.00
2019-01-23T12:20:08.072Z,93.20
2019-01-23T12:24:59.837Z,93.10
2019-01-23T12:29:51.697Z,93.10
2019-01-23T12:34:45.460Z,92.50
2019-01-23T12:39:36.688Z,92.20
2019-01-23T12:44:30.618Z,92.20
2019-01-23T12:49:21.743Z,92.60
2019-01-23T12:54:16.160Z,92.90
2019-01-23T12:59:07.314Z,92.80
2019-01-23T13:03:58.825Z,92.50
2019-01-23T13:08:50.282Z,93.20
2019-01-23T13:13:42.051Z,93.80
2019-01-23T13:18:33.757Z,93.30
2019-01-23T13:23:25.612Z,93.70
2019-01-23T13:28:17.515Z,93.60
2019-01-23T13:33:09.523Z,93.50
2019-01-23T13:38:01.533Z,93.40
2019-01-23T13:42:53.516Z,93.70
2019-01-23T13:47:44.919Z,93.70
2019-01-23T13:52:36.843Z,93.60
2019-01-23T13:57:28.918Z,93.10
2019-01-23T14:02:20.661Z,92.40
2019-01-23T14:07:12.437Z,91.90
2019-01-23T14:12:04.242Z,90.90
2019-01-23T14:16:55.853Z,90.30
2019-01-23T14:21:49.594Z,90.70
2019-01-23T14:26:41.146Z,91.00
2019-01-23T14:31:32.850Z,91.50
2019-01-23T14:36:25.502Z,91.60
2019-01-23T14:41:17.163Z,91.40
2019-01-23T14:46:08.910Z,91.20
2019-01-23T14:51:02.237Z,91.70
2019-01-23T14:55:53.484Z,91.70
2019-01-23T15:00:45.259Z,91.50
2019-01-23T15:05:36.813Z,91.30
2019-01-23T15:10:28.321Z,91.10
2019-01-23T15:15:19.727Z,91.40
2019-01-23T15:20:11.557Z,91.50
2019-01-23T15:25:03.189Z,91.70
2019-01-23T15:29:54.963Z,92.10
2019-01-23T15:34:47.666Z,92.40
2019-01-23T15:39:39.159Z,92.70
2019-01-23T15:44:30.546Z,92.80
2019-01-23T15:49:22.450Z,92.70
2019-01-23T15:54:14.206Z,92.50
2019-01-23T15:59:05.701Z,92.10
2019-01-23T16:03:57.284Z,92.40
2019-01-23T16:08:48.866Z,92.70
2019-01-23T16:13:43.670Z,92.90
2019-01-23T16:18:34.352Z,92.90
2019-01-23T16:23:27.507Z,93.00
2019-01-23T16:28:19.734Z,92.70
2019-01-23T16:33:13.046Z,92.40
2019-01-23T16:38:04.065Z,91.90
2019-01-23T16:42:55.611Z,91.10
2019-01-23T16:47:47.322Z,90.70
2019-01-23T16:52:38.750Z,90.00
2019-01-23T16:57:30.545Z,90.00
2019-01-23T17:02:21.998Z,90.20
2019-01-23T17:07:13.694Z,90.10
2019-01-23T17:12:10.471Z,90.00
2019-01-23T17:17:00.833Z,89.40
2019-01-23T17:21:52.424Z,90.00
2019-01-23T17:26:43.981Z,90.00
2019-01-23T17:31:35.819Z,90.50
2019-01-23T17:36:27.577Z,90.80
2019-01-23T17:41:20.482Z,90.70
2019-01-23T17:46:11.248Z,90.30
2019-01-23T17:51:01.692Z,90.40
2019-01-23T17:55:51.949Z,90.20
2019-01-23T18:00:42.919Z,90.30
2019-01-23T18:05:33.636Z,90.70
2019-01-23T18:10:24.201Z,90.80
2019-01-23T18:15:14.413Z,90.80
2019-01-23T18:20:07.023Z,91.10
2019-01-23T18:24:58.367Z,91.10
2019-01-23T18:29:50.166Z,90.90
2019-01-23T18:34:40.445Z,91.10
2019-01-23T18:39:33.018Z,91.20
2019-01-23T18:44:22.719Z,91.00
2019-01-23T18:49:12.491Z,91.10
2019-01-23T18:54:02.625Z,91.30
2019-01-23T18:58:53.984Z,91.30
2019-01-23T19:03:43.214Z,91.40
2019-01-23T19:08:35.263Z,91.50
2019-01-23T19:13:26.688Z,91.80
2019-01-23T19:18:16.936Z,91.80
2019-01-23T19:23:07.214Z,91.80
2019-01-23T19:27:59.549Z,91.90
2019-01-23T19:32:48.953Z,91.80
2019-01-23T19:37:39.124Z,91.70
2019-01-23T19:42:28.838Z,91.60
2019-01-23T19:47:18.590Z,91.40
2019-01-23T19:52:08.270Z,91.60
2019-01-23T19:56:58.227Z,91.30
2019-01-23T20:01:49.913Z,91.40
2019-01-23T20:06:39.416Z,91.60
2019-01-23T20:11:29.075Z,91.70
2019-01-23T20:16:20.679Z,92.00
2019-01-23T20:21:12.002Z,92.10
2019-01-23T20:26:01.255Z,92.50
2019-01-23T20:30:50.978Z,92.40
2019-01-23T20:35:42.812Z,92.40
2019-01-23T20:40:32.254Z,92.50
2019-01-23T20:45:23.628Z,92.30
2019-01-23T20:50:14.532Z,92.30
2019-01-23T20:55:03.774Z,92.30
2019-01-23T20:59:53.769Z,91.70
2019-01-23T21:04:45.191Z,91.90
2019-01-23T21:09:35.522Z,91.90
2019-01-23T21:14:24.638Z,91.90
2019-01-23T21:19:16.145Z,91.70
2019-01-23T21:24:07.413Z,91.50
2019-01-23T21:28:57.997Z,91.60
2019-01-23T21:33:46.889Z,91.50
2019-01-23T21:38:46.170Z,91.50
2019-01-23T21:46:07.103Z,91.70
2019-01-23T21:51:05.313Z,91.80
2019-01-23T21:55:50.767Z,92.00
2019-01-23T22:00:41.436Z,92.00
2019-01-23T22:05:32.815Z,92.00
2019-01-23T22:10:24.229Z,92.00
2019-01-23T22:15:14.272Z,92.00
2019-01-23T22:20:04.539Z,92.00
2019-01-23T22:42:45.736Z,92.30
2019-01-23T22:48:09.210Z,92.70
2019-01-23T23:35:46.926Z,92.50
2019-01-23T23:40:39.681Z,92.20
2019-01-23T23:45:30.832Z,91.90
2019-01-23T23:50:21.898Z,91.70
2019-01-23T23:55:13.257Z,91.80
